SGO200 LGSA-ENGM
Flight info
| Callsign | SGO200 |
|---|---|
| Flight time | N/A |
| Altitude | 36000 |
| Route | SOKRI UY151 VELOP DCT ATV UM749 SIGFO DCT EVIVI L863 OKANA DCT PARAK DCT TPS DCT PATAK DCT REGLI DCT GOSOT DCT SABAK DCT LUNIP |
| Aircraft | B738/M-SDE2E3FGHIRWXY/LB1 |
Departure
| Time | 2026-04-28 11:24 |
|---|---|
| Airport | Chania International Airport (LGSA) |
Arrival
| Time | N/A |
|---|---|
| Airport | Oslo-Gardermoen International Airport (ENGM) |
| Time | Latitude | Longitude | Altitude | Speed | Heading |
|---|---|---|---|---|---|
| 2026-04-28 11:04 | 35.53806 | 24.14256 | 555 ft | 0 kts | 21° |
| 2026-04-28 11:08 | 35.53804 | 24.14255 | 555 ft | 2 kts | 21° |
| 2026-04-28 11:09 | 35.53789 | 24.14248 | 566 ft | 2 kts | 21° |
| 2026-04-28 11:09 | 35.53774 | 24.14240 | 559 ft | 2 kts | 21° |
| 2026-04-28 11:09 | 35.53759 | 24.14233 | 566 ft | 2 kts | 21° |
| 2026-04-28 11:09 | 35.53743 | 24.14226 | 562 ft | 2 kts | 52° |
| 2026-04-28 11:10 | 35.53739 | 24.14216 | 563 ft | 0 kts | 98° |
| 2026-04-28 11:12 | 35.53739 | 24.14219 | 562 ft | 1 kts | 99° |
| 2026-04-28 11:12 | 35.53736 | 24.14233 | 563 ft | 2 kts | 105° |
| 2026-04-28 11:12 | 35.53729 | 24.14256 | 557 ft | 4 kts | 112° |
| 2026-04-28 11:13 | 35.53716 | 24.14288 | 561 ft | 5 kts | 117° |
| 2026-04-28 11:13 | 35.53698 | 24.14326 | 558 ft | 6 kts | 126° |
| 2026-04-28 11:13 | 35.53664 | 24.14354 | 559 ft | 6 kts | 173° |
| 2026-04-28 11:13 | 35.53619 | 24.14351 | 565 ft | 7 kts | 184° |
| 2026-04-28 11:14 | 35.53570 | 24.14358 | 564 ft | 7 kts | 158° |
| 2026-04-28 11:14 | 35.53541 | 24.14406 | 564 ft | 7 kts | 112° |
| 2026-04-28 11:14 | 35.53520 | 24.14468 | 559 ft | 8 kts | 115° |
| 2026-04-28 11:14 | 35.53495 | 24.14537 | 556 ft | 9 kts | 110° |
| 2026-04-28 11:15 | 35.53473 | 24.14616 | 560 ft | 10 kts | 109° |
| 2026-04-28 11:15 | 35.53450 | 24.14697 | 555 ft | 10 kts | 111° |
| 2026-04-28 11:15 | 35.53424 | 24.14775 | 557 ft | 10 kts | 112° |
| 2026-04-28 11:15 | 35.53399 | 24.14851 | 557 ft | 10 kts | 112° |
| 2026-04-28 11:16 | 35.53374 | 24.14927 | 557 ft | 9 kts | 112° |
| 2026-04-28 11:16 | 35.53350 | 24.15000 | 559 ft | 9 kts | 112° |
| 2026-04-28 11:16 | 35.53327 | 24.15070 | 560 ft | 9 kts | 112° |
| 2026-04-28 11:16 | 35.53304 | 24.15139 | 561 ft | 9 kts | 112° |
| 2026-04-28 11:17 | 35.53280 | 24.15212 | 561 ft | 10 kts | 112° |
| 2026-04-28 11:17 | 35.53253 | 24.15292 | 563 ft | 10 kts | 112° |
| 2026-04-28 11:17 | 35.53225 | 24.15377 | 557 ft | 11 kts | 112° |
| 2026-04-28 11:17 | 35.53195 | 24.15466 | 558 ft | 11 kts | 112° |
| 2026-04-28 11:18 | 35.53166 | 24.15554 | 558 ft | 11 kts | 112° |
| 2026-04-28 11:18 | 35.53136 | 24.15645 | 557 ft | 12 kts | 112° |
| 2026-04-28 11:18 | 35.53106 | 24.15735 | 555 ft | 11 kts | 112° |
| 2026-04-28 11:18 | 35.53078 | 24.15822 | 555 ft | 11 kts | 112° |
| 2026-04-28 11:19 | 35.53049 | 24.15908 | 556 ft | 11 kts | 112° |
| 2026-04-28 11:19 | 35.53021 | 24.15994 | 558 ft | 11 kts | 112° |
| 2026-04-28 11:19 | 35.52994 | 24.16078 | 558 ft | 10 kts | 112° |
| 2026-04-28 11:19 | 35.52968 | 24.16160 | 560 ft | 10 kts | 110° |
| 2026-04-28 11:20 | 35.52943 | 24.16240 | 559 ft | 10 kts | 110° |
| 2026-04-28 11:20 | 35.52919 | 24.16320 | 557 ft | 10 kts | 109° |
| 2026-04-28 11:20 | 35.52895 | 24.16404 | 560 ft | 10 kts | 109° |
| 2026-04-28 11:20 | 35.52870 | 24.16487 | 558 ft | 10 kts | 113° |
| 2026-04-28 11:21 | 35.52841 | 24.16564 | 559 ft | 10 kts | 114° |
| 2026-04-28 11:21 | 35.52813 | 24.16642 | 561 ft | 10 kts | 114° |
| 2026-04-28 11:21 | 35.52786 | 24.16723 | 561 ft | 10 kts | 111° |
| 2026-04-28 11:21 | 35.52763 | 24.16804 | 558 ft | 10 kts | 108° |
| 2026-04-28 11:22 | 35.52726 | 24.16873 | 561 ft | 10 kts | 151° |
| 2026-04-28 11:22 | 35.52682 | 24.16872 | 556 ft | 10 kts | 202° |
| 2026-04-28 11:22 | 35.52624 | 24.16840 | 563 ft | 11 kts | 204° |
| 2026-04-28 11:22 | 35.52596 | 24.16767 | 556 ft | 11 kts | 285° |
| 2026-04-28 11:23 | 35.52610 | 24.16718 | 558 ft | 0 kts | 290° |
| 2026-04-28 11:24 | 35.52681 | 24.16495 | 559 ft | 64 kts | 292° |
| 2026-04-28 11:24 | 35.52939 | 24.15728 | 559 ft | 129 kts | 292° |
| 2026-04-28 11:24 | 35.53333 | 24.14495 | 560 ft | 181 kts | 291° |
| 2026-04-28 11:24 | 35.53792 | 24.13045 | 1342 ft | 174 kts | 291° |
| 2026-04-28 11:25 | 35.54213 | 24.11639 | 2137 ft | 179 kts | 294° |
| 2026-04-28 11:25 | 35.54706 | 24.10154 | 2627 ft | 203 kts | 294° |
| 2026-04-28 11:25 | 35.55262 | 24.08478 | 3029 ft | 218 kts | 294° |
| 2026-04-28 11:25 | 35.56126 | 24.06961 | 3494 ft | 220 kts | 327° |
| 2026-04-28 11:26 | 35.57555 | 24.06394 | 4039 ft | 221 kts | 358° |
| 2026-04-28 11:26 | 35.59118 | 24.06496 | 4592 ft | 229 kts | 6° |
| 2026-04-28 11:26 | 35.60705 | 24.06713 | 5304 ft | 229 kts | 6° |
| 2026-04-28 11:26 | 35.62302 | 24.06945 | 5978 ft | 233 kts | 6° |
| 2026-04-28 11:27 | 35.63908 | 24.06827 | 6645 ft | 235 kts | 339° |
| 2026-04-28 11:27 | 35.65386 | 24.05808 | 6933 ft | 257 kts | 325° |
| 2026-04-28 11:27 | 35.66854 | 24.04425 | 7325 ft | 272 kts | 322° |
| 2026-04-28 11:27 | 35.68341 | 24.02945 | 7985 ft | 276 kts | 321° |
| 2026-04-28 11:28 | 35.69834 | 24.01458 | 8743 ft | 278 kts | 321° |
| 2026-04-28 11:28 | 35.71347 | 23.99962 | 9458 ft | 281 kts | 322° |
| 2026-04-28 11:28 | 35.72885 | 23.98453 | 10144 ft | 285 kts | 322° |
| 2026-04-28 11:28 | 35.74476 | 23.96899 | 10461 ft | 302 kts | 322° |
| 2026-04-28 11:29 | 35.76186 | 23.95232 | 10614 ft | 324 kts | 322° |
| 2026-04-28 11:29 | 35.78008 | 23.93460 | 10774 ft | 344 kts | 322° |
| 2026-04-28 11:29 | 35.79916 | 23.91605 | 11195 ft | 353 kts | 322° |
| 2026-04-28 11:29 | 35.81847 | 23.89729 | 11849 ft | 355 kts | 322° |
| 2026-04-28 11:30 | 35.83789 | 23.87842 | 12520 ft | 357 kts | 322° |
| 2026-04-28 11:30 | 35.87728 | 23.84015 | 13724 ft | 364 kts | 321° |
| 2026-04-28 11:30 | 35.89724 | 23.82072 | 14290 ft | 367 kts | 321° |
| 2026-04-28 11:31 | 35.91738 | 23.80111 | 14871 ft | 369 kts | 321° |
| 2026-04-28 11:31 | 35.93076 | 23.78807 | 15277 ft | 370 kts | 321° |
| 2026-04-28 11:31 | 35.95099 | 23.76835 | 15874 ft | 372 kts | 321° |
| 2026-04-28 11:31 | 35.97824 | 23.74177 | 16615 ft | 375 kts | 321° |
| 2026-04-28 11:32 | 35.99851 | 23.72198 | 17137 ft | 378 kts | 321° |
| 2026-04-28 11:32 | 36.01929 | 23.70188 | 17697 ft | 380 kts | 321° |
| 2026-04-28 11:32 | 36.04022 | 23.68179 | 18264 ft | 382 kts | 321° |
| 2026-04-28 11:32 | 36.06130 | 23.66161 | 18751 ft | 385 kts | 321° |
| 2026-04-28 11:33 | 36.07562 | 23.64788 | 19064 ft | 386 kts | 321° |
| 2026-04-28 11:33 | 36.09691 | 23.62745 | 19538 ft | 388 kts | 321° |
| 2026-04-28 11:33 | 36.11825 | 23.60693 | 20005 ft | 390 kts | 321° |
| 2026-04-28 11:33 | 36.13972 | 23.58625 | 20485 ft | 392 kts | 321° |
| 2026-04-28 11:34 | 36.16134 | 23.56540 | 20915 ft | 395 kts | 321° |
| 2026-04-28 11:34 | 36.18277 | 23.54472 | 21343 ft | 397 kts | 321° |
| 2026-04-28 11:34 | 36.20488 | 23.52338 | 21805 ft | 399 kts | 321° |
| 2026-04-28 11:34 | 36.22683 | 23.50217 | 22234 ft | 401 kts | 321° |
| 2026-04-28 11:35 | 36.24923 | 23.48138 | 22633 ft | 405 kts | 327° |
| 2026-04-28 11:35 | 36.27500 | 23.46775 | 22900 ft | 413 kts | 345° |
| 2026-04-28 11:35 | 36.30327 | 23.46188 | 23566 ft | 411 kts | 351° |
| 2026-04-28 11:35 | 36.33175 | 23.45787 | 23912 ft | 414 kts | 351° |
| 2026-04-28 11:36 | 36.36053 | 23.45357 | 24121 ft | 419 kts | 349° |
| 2026-04-28 11:36 | 36.38943 | 23.44772 | 24442 ft | 420 kts | 347° |
| 2026-04-28 11:36 | 36.41813 | 23.44098 | 24834 ft | 420 kts | 346° |
| 2026-04-28 11:36 | 36.44689 | 23.43414 | 25166 ft | 422 kts | 347° |
| 2026-04-28 11:37 | 36.47581 | 23.42751 | 25475 ft | 424 kts | 347° |
| 2026-04-28 11:37 | 36.50489 | 23.42113 | 25779 ft | 426 kts | 347° |
| 2026-04-28 11:37 | 36.53423 | 23.41491 | 26087 ft | 428 kts | 348° |
| 2026-04-28 11:37 | 36.56362 | 23.40879 | 26394 ft | 429 kts | 348° |
| 2026-04-28 11:38 | 36.59310 | 23.40270 | 26685 ft | 431 kts | 348° |
| 2026-04-28 11:38 | 36.62275 | 23.39658 | 26978 ft | 433 kts | 348° |
| 2026-04-28 11:38 | 36.65248 | 23.39043 | 27259 ft | 434 kts | 348° |
| 2026-04-28 11:38 | 36.68236 | 23.38423 | 27527 ft | 436 kts | 348° |
| 2026-04-28 11:39 | 36.71236 | 23.37798 | 27787 ft | 438 kts | 348° |
| 2026-04-28 11:39 | 36.74245 | 23.37171 | 28055 ft | 439 kts | 348° |
| 2026-04-28 11:39 | 36.77261 | 23.36543 | 28315 ft | 441 kts | 348° |
| 2026-04-28 11:39 | 36.80295 | 23.35910 | 28553 ft | 443 kts | 348° |
| 2026-04-28 11:40 | 36.83339 | 23.35275 | 28805 ft | 444 kts | 348° |
| 2026-04-28 11:40 | 36.86390 | 23.34639 | 29056 ft | 446 kts | 348° |
| 2026-04-28 11:40 | 36.89449 | 23.34002 | 29369 ft | 445 kts | 348° |
| 2026-04-28 11:40 | 36.92501 | 23.33366 | 29769 ft | 443 kts | 348° |
| 2026-04-28 11:41 | 36.95538 | 23.32732 | 30164 ft | 441 kts | 348° |
| 2026-04-28 11:41 | 36.98557 | 23.32101 | 30434 ft | 441 kts | 348° |
| 2026-04-28 11:41 | 37.01588 | 23.31467 | 30678 ft | 441 kts | 348° |
| 2026-04-28 11:41 | 37.04612 | 23.30833 | 30936 ft | 441 kts | 348° |
| 2026-04-28 11:42 | 37.07633 | 23.30201 | 31264 ft | 439 kts | 348° |
| 2026-04-28 11:42 | 37.10644 | 23.29569 | 31587 ft | 437 kts | 348° |
| 2026-04-28 11:42 | 37.13608 | 23.28976 | 31840 ft | 438 kts | 351° |
| 2026-04-28 11:42 | 37.16656 | 23.28717 | 32013 ft | 442 kts | 0° |
| 2026-04-28 11:43 | 37.19696 | 23.29471 | 32065 ft | 453 kts | 20° |
| 2026-04-28 11:43 | 37.22421 | 23.31429 | 32485 ft | 453 kts | 35° |
| 2026-04-28 11:43 | 37.24818 | 23.33946 | 33073 ft | 447 kts | 38° |
| 2026-04-28 11:43 | 37.27162 | 23.36519 | 33212 ft | 449 kts | 36° |
| 2026-04-28 11:44 | 37.32335 | 23.40967 | 33410 ft | 451 kts | 27° |
| 2026-04-28 11:44 | 37.35062 | 23.42878 | 33750 ft | 447 kts | 25° |
| 2026-04-28 11:44 | 37.37798 | 23.44716 | 34063 ft | 445 kts | 25° |
| 2026-04-28 11:45 | 37.40530 | 23.46543 | 34234 ft | 446 kts | 25° |
| 2026-04-28 11:45 | 37.43265 | 23.48391 | 34355 ft | 447 kts | 25° |
| 2026-04-28 11:45 | 37.46004 | 23.50268 | 34549 ft | 447 kts | 25° |
| 2026-04-28 11:45 | 37.48727 | 23.52155 | 34754 ft | 446 kts | 26° |
| 2026-04-28 11:46 | 37.51435 | 23.54046 | 34978 ft | 445 kts | 26° |
| 2026-04-28 11:46 | 37.54147 | 23.55945 | 35141 ft | 446 kts | 26° |
| 2026-04-28 11:46 | 37.56858 | 23.57846 | 35293 ft | 446 kts | 26° |
| 2026-04-28 11:46 | 37.59569 | 23.59747 | 35453 ft | 446 kts | 26° |
| 2026-04-28 11:47 | 37.62281 | 23.61650 | 35639 ft | 445 kts | 25° |
| 2026-04-28 11:47 | 37.64980 | 23.63545 | 35834 ft | 445 kts | 25° |
| 2026-04-28 11:47 | 37.67684 | 23.65444 | 35981 ft | 445 kts | 25° |
| 2026-04-28 11:47 | 37.70395 | 23.67349 | 36090 ft | 446 kts | 25° |
| 2026-04-28 11:48 | 37.75830 | 23.71174 | 36093 ft | 447 kts | 25° |
| 2026-04-28 11:48 | 37.81240 | 23.74989 | 36097 ft | 445 kts | 26° |
| 2026-04-28 11:49 | 37.86708 | 23.78604 | 36046 ft | 440 kts | 14° |
| 2026-04-28 11:49 | 37.89654 | 23.79423 | 36165 ft | 430 kts | 5° |
| 2026-04-28 11:49 | 37.92631 | 23.79797 | 36113 ft | 430 kts | 359° |
| 2026-04-28 11:50 | 37.98556 | 23.79319 | 36085 ft | 427 kts | 349° |
| 2026-04-28 11:50 | 38.04431 | 23.78263 | 36086 ft | 427 kts | 350° |
| 2026-04-28 11:51 | 38.10337 | 23.77340 | 36074 ft | 428 kts | 351° |
| 2026-04-28 11:51 | 38.16252 | 23.76504 | 36074 ft | 429 kts | 351° |
| 2026-04-28 11:52 | 38.22142 | 23.75661 | 36101 ft | 429 kts | 351° |
| 2026-04-28 11:52 | 38.28075 | 23.74799 | 36110 ft | 430 kts | 351° |
| 2026-04-28 11:53 | 38.34025 | 23.73933 | 36126 ft | 430 kts | 351° |
| 2026-04-28 11:53 | 38.39979 | 23.73066 | 36116 ft | 431 kts | 351° |
| 2026-04-28 11:54 | 38.45927 | 23.72200 | 36127 ft | 431 kts | 351° |
| 2026-04-28 11:54 | 38.51879 | 23.71332 | 36145 ft | 430 kts | 351° |
| 2026-04-28 11:55 | 38.57835 | 23.70461 | 36136 ft | 430 kts | 351° |
| 2026-04-28 11:55 | 38.63774 | 23.69593 | 36123 ft | 429 kts | 351° |
| 2026-04-28 11:56 | 38.69702 | 23.68723 | 36131 ft | 428 kts | 352° |
| 2026-04-28 11:56 | 38.75611 | 23.67855 | 36131 ft | 428 kts | 352° |
| 2026-04-28 11:57 | 38.81517 | 23.66986 | 36134 ft | 427 kts | 352° |
| 2026-04-28 11:57 | 38.87406 | 23.66118 | 36145 ft | 426 kts | 352° |
| 2026-04-28 11:58 | 38.93295 | 23.65249 | 36132 ft | 426 kts | 352° |
| 2026-04-28 11:58 | 38.99199 | 23.64585 | 36134 ft | 426 kts | 354° |
| 2026-04-28 11:59 | 39.05127 | 23.64183 | 36138 ft | 426 kts | 355° |
| 2026-04-28 11:59 | 39.11049 | 23.63791 | 36132 ft | 427 kts | 355° |
| 2026-04-28 12:00 | 39.16982 | 23.63360 | 36137 ft | 427 kts | 355° |
| 2026-04-28 12:00 | 39.22916 | 23.62907 | 36124 ft | 428 kts | 355° |
| 2026-04-28 12:01 | 39.28869 | 23.62446 | 36134 ft | 428 kts | 355° |
| 2026-04-28 12:01 | 39.34812 | 23.61986 | 36135 ft | 428 kts | 354° |
| 2026-04-28 12:02 | 39.40764 | 23.61525 | 36132 ft | 428 kts | 354° |
| 2026-04-28 12:02 | 39.46716 | 23.61063 | 36141 ft | 428 kts | 354° |
| 2026-04-28 12:03 | 39.52663 | 23.60601 | 36133 ft | 428 kts | 354° |
| 2026-04-28 12:03 | 39.58618 | 23.60138 | 36139 ft | 428 kts | 354° |
| 2026-04-28 12:04 | 39.64562 | 23.59675 | 36136 ft | 428 kts | 354° |
| 2026-04-28 12:04 | 39.70512 | 23.59210 | 36134 ft | 428 kts | 354° |
| 2026-04-28 12:05 | 39.76449 | 23.58746 | 36129 ft | 428 kts | 354° |
| 2026-04-28 12:05 | 39.81012 | 23.58388 | 36129 ft | 427 kts | 354° |
| 2026-04-28 12:06 | 39.86938 | 23.57923 | 36134 ft | 427 kts | 354° |
| 2026-04-28 12:06 | 39.92862 | 23.57458 | 36130 ft | 427 kts | 354° |
| 2026-04-28 12:07 | 39.98790 | 23.56991 | 36138 ft | 426 kts | 354° |
| 2026-04-28 12:07 | 40.04718 | 23.56523 | 36121 ft | 427 kts | 354° |
| 2026-04-28 12:08 | 40.10640 | 23.56055 | 36137 ft | 426 kts | 354° |
| 2026-04-28 12:08 | 40.16556 | 23.55587 | 36117 ft | 426 kts | 354° |
| 2026-04-28 12:09 | 40.22476 | 23.55118 | 36127 ft | 425 kts | 354° |
| 2026-04-28 12:09 | 40.28387 | 23.54648 | 36121 ft | 426 kts | 354° |
| 2026-04-28 12:10 | 40.34291 | 23.54179 | 36118 ft | 425 kts | 354° |
| 2026-04-28 12:10 | 40.40193 | 23.53708 | 36112 ft | 425 kts | 354° |
| 2026-04-28 12:11 | 40.46093 | 23.53237 | 36121 ft | 424 kts | 354° |
| 2026-04-28 12:11 | 40.51983 | 23.52766 | 36115 ft | 425 kts | 354° |
| 2026-04-28 12:12 | 40.57884 | 23.52293 | 36102 ft | 424 kts | 354° |
| 2026-04-28 12:12 | 40.63778 | 23.51820 | 36114 ft | 424 kts | 354° |
| 2026-04-28 12:13 | 40.69655 | 23.51347 | 36098 ft | 423 kts | 354° |
| 2026-04-28 12:13 | 40.75530 | 23.50874 | 36108 ft | 422 kts | 354° |
| 2026-04-28 12:14 | 40.81397 | 23.50401 | 36094 ft | 422 kts | 354° |
| 2026-04-28 12:14 | 40.87248 | 23.49928 | 36105 ft | 421 kts | 354° |
| 2026-04-28 12:15 | 40.93087 | 23.49455 | 36100 ft | 420 kts | 354° |
| 2026-04-28 12:15 | 40.98924 | 23.48982 | 36096 ft | 420 kts | 354° |
| 2026-04-28 12:16 | 41.04757 | 23.48508 | 36097 ft | 420 kts | 354° |
| 2026-04-28 12:16 | 41.10582 | 23.48033 | 36092 ft | 419 kts | 354° |
| 2026-04-28 12:17 | 41.16371 | 23.47561 | 36094 ft | 419 kts | 354° |
| 2026-04-28 12:17 | 41.22197 | 23.47085 | 36091 ft | 420 kts | 354° |
| 2026-04-28 12:18 | 41.28029 | 23.46607 | 36089 ft | 420 kts | 353° |
| 2026-04-28 12:18 | 41.33862 | 23.46129 | 36088 ft | 420 kts | 353° |
| 2026-04-28 12:19 | 41.39680 | 23.45448 | 36066 ft | 419 kts | 347° |
| 2026-04-28 12:19 | 41.42472 | 23.44427 | 36048 ft | 415 kts | 334° |
| 2026-04-28 12:19 | 41.45022 | 23.42663 | 36134 ft | 412 kts | 329° |